createdAt,value
2023-03-01T00:00:01.639Z,39.30
2023-03-01T00:06:13.188Z,38.30
2023-03-01T00:09:20.250Z,39.90
2023-03-01T00:12:26.623Z,38.70
2023-03-01T00:15:32.914Z,43.70
2023-03-01T00:21:44.775Z,42.70
2023-03-01T00:24:51.325Z,45.30
2023-03-01T00:27:58.128Z,40.70
2023-03-01T00:31:08.920Z,39.90
2023-03-01T00:34:15.299Z,39.80
2023-03-01T00:37:22.078Z,39.20
2023-03-01T00:40:28.342Z,38.30
2023-03-01T00:46:44.257Z,35.60
2023-03-01T00:52:58.087Z,37.40
2023-03-01T00:56:05.056Z,41.30
2023-03-01T00:59:11.579Z,42.10
2023-03-01T01:02:17.937Z,42.40
2023-03-01T01:08:29.100Z,40.30
2023-03-01T01:11:37.407Z,41.50
2023-03-01T01:14:43.851Z,41.00
2023-03-01T01:17:50.306Z,45.10
2023-03-01T01:20:56.584Z,44.50
2023-03-01T01:27:08.373Z,43.00
2023-03-01T01:30:16.268Z,41.30
2023-03-01T01:33:22.607Z,43.10
2023-03-01T01:39:33.706Z,40.30
2023-03-01T01:45:46.283Z,40.60
2023-03-01T01:48:56.314Z,40.10
2023-03-01T01:52:08.155Z,39.90
2023-03-01T01:55:18.475Z,37.60
2023-03-01T01:58:26.247Z,39.50
2023-03-01T02:01:32.696Z,38.60
2023-03-01T02:04:39.240Z,42.00
2023-03-01T02:07:46.905Z,38.20
2023-03-01T02:10:55.183Z,40.30
2023-03-01T02:14:01.622Z,41.30
2023-03-01T02:17:07.931Z,41.10
2023-03-01T02:23:24.619Z,40.50
2023-03-01T02:26:38.021Z,39.20
2023-03-01T02:29:45.032Z,41.40
2023-03-01T02:32:53.384Z,41.10
2023-03-01T02:36:01.902Z,42.20
2023-03-01T02:39:15.611Z,42.50
2023-03-01T02:42:28.262Z,44.80
2023-03-01T02:45:34.677Z,46.70
2023-03-01T02:48:50.693Z,46.60
2023-03-01T02:55:30.080Z,44.90
2023-03-01T02:58:41.746Z,44.50
2023-03-01T03:01:48.147Z,43.30
2023-03-01T03:04:54.580Z,42.10
2023-03-01T03:08:02.214Z,41.50
2023-03-01T03:11:08.694Z,41.60
2023-03-01T03:14:17.055Z,38.60
2023-03-01T03:17:23.442Z,39.70
2023-03-01T03:20:32.844Z,39.50
2023-03-01T03:23:39.378Z,38.40
2023-03-01T03:26:45.726Z,38.90
2023-03-01T03:29:52.291Z,39.60
2023-03-01T03:33:00.179Z,39.00
2023-03-01T03:36:07.605Z,40.00
2023-03-01T03:39:14.007Z,40.20
2023-03-01T03:42:20.351Z,39.70
2023-03-01T03:45:26.788Z,40.40
2023-03-01T03:48:33.065Z,37.40
2023-03-01T03:54:44.096Z,36.50
2023-03-01T03:57:52.728Z,37.90
2023-03-01T04:01:00.249Z,36.00
2023-03-01T04:04:09.007Z,38.10
2023-03-01T04:07:15.273Z,37.90
2023-03-01T04:13:26.730Z,35.90
2023-03-01T04:16:33.364Z,36.50
2023-03-01T04:19:39.932Z,35.60
2023-03-01T04:25:55.196Z,35.50
2023-03-01T04:29:01.431Z,37.60
2023-03-01T04:35:13.246Z,34.80
2023-03-01T04:38:19.666Z,36.90
2023-03-01T04:41:27.118Z,35.80
2023-03-01T04:44:33.534Z,37.00
2023-03-01T04:47:39.798Z,36.80
2023-03-01T04:53:51.286Z,34.30
2023-03-01T04:56:57.800Z,33.50
2023-03-01T05:00:20.899Z,34.60
2023-03-01T05:03:27.720Z,34.60
2023-03-01T05:06:34.020Z,35.60
2023-03-01T05:12:45.714Z,34.90
2023-03-01T05:18:57.842Z,32.50
2023-03-01T05:22:04.830Z,34.30
2023-03-01T05:25:11.816Z,33.80
2023-03-01T05:28:17.982Z,34.20
2023-03-01T05:31:24.212Z,33.00
2023-03-01T05:37:36.851Z,33.80
2023-03-01T05:40:44.689Z,32.30
2023-03-01T05:43:50.873Z,32.00
2023-03-01T05:46:57.615Z,34.70
2023-03-01T05:50:03.942Z,33.90
2023-03-01T05:53:12.673Z,36.10
2023-03-01T05:56:18.933Z,35.40
2023-03-01T06:02:30.330Z,36.00
2023-03-01T06:05:36.703Z,36.50
2023-03-01T06:08:42.921Z,35.90
2023-03-01T06:11:49.165Z,37.50
2023-03-01T06:18:00.566Z,35.80
2023-03-01T06:21:08.385Z,40.50
2023-03-01T06:24:14.648Z,38.10
2023-03-01T06:30:27.616Z,45.90
2023-03-01T06:33:33.897Z,45.10
2023-03-01T06:39:44.696Z,42.20
2023-03-01T06:45:57.731Z,37.30
2023-03-01T06:49:05.597Z,38.50
2023-03-01T06:52:11.859Z,39.40
2023-03-01T06:58:22.756Z,34.80
2023-03-01T07:04:33.490Z,35.00
2023-03-01T07:10:44.435Z,29.20
2023-03-01T07:13:50.676Z,32.60
2023-03-01T07:20:01.653Z,33.50
2023-03-01T07:23:09.733Z,33.80
2023-03-01T07:26:15.936Z,31.90
2023-03-01T07:29:22.335Z,32.80
2023-03-01T07:32:28.703Z,32.50
2023-03-01T07:35:35.022Z,32.10
2023-03-01T07:41:45.962Z,30.00
2023-03-01T07:47:56.916Z,30.30
2023-03-01T07:51:04.566Z,32.10
2023-03-01T07:54:11.258Z,32.10
2023-03-01T07:57:17.552Z,33.50
2023-03-01T08:03:28.911Z,32.20
2023-03-01T08:09:40.281Z,31.70
2023-03-01T08:12:46.580Z,31.70
2023-03-01T08:19:01.694Z,28.50
2023-03-01T08:22:07.955Z,29.70
2023-03-01T08:28:19.417Z,25.50
2023-03-01T08:31:27.847Z,24.70
2023-03-01T08:34:36.688Z,26.30
2023-03-01T08:37:42.975Z,23.30
2023-03-01T08:43:53.889Z,22.30
2023-03-01T08:47:01.055Z,22.30
2023-03-01T08:50:08.882Z,21.70
2023-03-01T08:53:15.316Z,19.80
2023-03-01T08:56:22.364Z,21.00
2023-03-01T08:59:30.616Z,19.80
2023-03-01T09:02:37.474Z,19.00
2023-03-01T09:05:43.827Z,16.80
2023-03-01T09:11:55.221Z,17.30
2023-03-01T09:15:01.528Z,16.50
2023-03-01T09:21:14.579Z,17.70
2023-03-01T09:24:21.722Z,17.20
2023-03-01T09:27:28.100Z,17.10
2023-03-01T09:33:39.168Z,21.40
2023-03-01T09:36:45.465Z,23.90
2023-03-01T09:43:03.548Z,16.10
2023-03-01T09:46:15.093Z,15.10
2023-03-01T09:49:23.531Z,25.20
2023-03-01T09:52:38.767Z,20.80
2023-03-01T09:55:51.259Z,16.00
2023-03-01T09:59:01.559Z,16.40
2023-03-01T10:02:24.058Z,17.20
2023-03-01T10:05:49.641Z,15.70
2023-03-01T10:09:00.574Z,15.00
2023-03-01T10:12:11.459Z,23.80
2023-03-01T10:15:22.310Z,18.00
2023-03-01T10:18:33.793Z,15.80
2023-03-01T10:21:47.040Z,16.30
2023-03-01T10:24:55.123Z,23.70
2023-03-01T10:28:12.870Z,19.70
2023-03-01T10:31:23.361Z,15.60
2023-03-01T10:34:34.434Z,22.90
2023-03-01T10:38:00.308Z,25.00
2023-03-01T10:41:09.525Z,16.40
2023-03-01T10:44:40.247Z,15.10
2023-03-01T10:47:46.465Z,16.50
2023-03-01T10:51:07.140Z,15.90
2023-03-01T10:54:21.933Z,16.10
2023-03-01T10:57:40.057Z,15.50
2023-03-01T11:00:56.046Z,15.50
2023-03-01T11:04:16.327Z,13.90
2023-03-01T11:07:22.546Z,13.40
2023-03-01T11:10:30.407Z,14.20
2023-03-01T11:13:39.011Z,14.70
2023-03-01T11:16:48.308Z,17.00
2023-03-01T11:20:09.117Z,19.60
2023-03-01T11:23:17.617Z,24.00
2023-03-01T11:26:24.524Z,24.10
2023-03-01T11:29:47.729Z,23.80
2023-03-01T11:33:05.436Z,20.20
2023-03-01T11:36:20.468Z,27.60
2023-03-01T11:39:33.600Z,35.60
2023-03-01T11:42:51.325Z,25.30
2023-03-01T11:46:17.713Z,19.20
2023-03-01T11:49:51.884Z,18.50
2023-03-01T11:53:12.126Z,19.80
2023-03-01T11:56:29.095Z,19.60
2023-03-01T11:59:55.775Z,18.00
2023-03-01T12:03:32.545Z,18.50
2023-03-01T12:06:56.054Z,18.60
2023-03-01T12:10:23.300Z,18.00
2023-03-01T12:13:52.020Z,17.60
2023-03-01T12:17:25.438Z,19.10
2023-03-01T12:20:39.107Z,18.30
2023-03-01T12:24:21.881Z,17.10
2023-03-01T12:27:56.325Z,16.70
2023-03-01T12:31:44.424Z,14.70
2023-03-01T12:35:15.842Z,15.70
2023-03-01T12:38:36.355Z,14.70
2023-03-01T12:42:00.824Z,14.40
2023-03-01T12:45:41.727Z,15.10
2023-03-01T12:48:59.153Z,15.00
2023-03-01T12:52:12.382Z,15.10
2023-03-01T12:55:30.793Z,15.10
2023-03-01T12:58:49.720Z,14.40
2023-03-01T13:02:04.572Z,15.40
2023-03-01T13:05:31.581Z,14.70
2023-03-01T13:08:42.976Z,17.90
2023-03-01T13:11:49.274Z,18.90
2023-03-01T13:18:04.377Z,16.60
2023-03-01T13:21:10.795Z,23.20
2023-03-01T13:24:31.551Z,215.50
2023-03-01T13:27:37.783Z,49.00
2023-03-01T13:30:45.235Z,23.80
2023-03-01T13:33:52.799Z,25.00
2023-03-01T13:37:13.291Z,18.50
2023-03-01T13:40:53.146Z,17.40
2023-03-01T13:43:59.993Z,18.70
2023-03-01T13:47:18.422Z,18.20
2023-03-01T13:50:27.760Z,17.70
2023-03-01T13:53:38.944Z,16.70
2023-03-01T13:56:46.190Z,16.50
2023-03-01T13:59:52.549Z,13.80
2023-03-01T14:06:30.450Z,15.10
2023-03-01T14:09:40.250Z,12.70
2023-03-01T14:12:52.913Z,12.20
2023-03-01T14:16:20.105Z,13.10
2023-03-01T14:19:33.472Z,13.30
2023-03-01T14:22:42.929Z,12.50
2023-03-01T14:25:53.365Z,13.00
2023-03-01T14:28:59.617Z,16.60
2023-03-01T14:32:21.448Z,13.40
2023-03-01T14:35:29.827Z,11.70
2023-03-01T14:38:38.392Z,12.10
2023-03-01T14:41:44.728Z,11.90
2023-03-01T14:47:58.027Z,13.70
2023-03-01T14:51:07.517Z,12.20
2023-03-01T14:54:26.398Z,13.00
2023-03-01T14:57:32.594Z,13.80
2023-03-01T15:00:39.085Z,14.40
2023-03-01T15:03:48.141Z,14.40
2023-03-01T15:06:56.923Z,13.90
2023-03-01T15:10:03.766Z,13.70
2023-03-01T15:13:23.700Z,14.80
2023-03-01T15:16:32.945Z,13.70
2023-03-01T15:19:39.538Z,14.70
2023-03-01T15:25:58.693Z,13.70
2023-03-01T15:29:05.413Z,14.20
2023-03-01T15:32:29.816Z,16.00
2023-03-01T15:35:46.674Z,15.00
2023-03-01T15:38:57.777Z,15.20
2023-03-01T15:42:04.059Z,15.90
2023-03-01T15:45:23.075Z,15.00
2023-03-01T15:48:29.544Z,28.60
2023-03-01T15:51:38.702Z,16.30
2023-03-01T15:54:44.995Z,15.80
2023-03-01T15:57:52.209Z,17.80
2023-03-01T16:01:01.979Z,18.30
2023-03-01T16:04:08.736Z,17.40
2023-03-01T16:10:20.654Z,15.60
2023-03-01T16:13:29.059Z,17.20
2023-03-01T16:16:36.653Z,17.40
2023-03-01T16:19:42.977Z,18.60
2023-03-01T16:22:49.865Z,21.00
2023-03-01T16:25:56.198Z,23.10
2023-03-01T16:32:08.000Z,22.50
2023-03-01T16:35:18.473Z,23.20
2023-03-01T16:38:24.748Z,26.00
2023-03-01T16:41:31.992Z,39.60
2023-03-01T16:44:38.487Z,38.00
2023-03-01T16:47:44.980Z,41.10
2023-03-01T16:50:59.725Z,41.10
2023-03-01T16:54:06.143Z,34.70
2023-03-01T17:00:18.942Z,32.80
2023-03-01T17:03:27.117Z,29.90
2023-03-01T17:06:33.726Z,28.60
2023-03-01T17:09:40.602Z,23.30
2023-03-01T17:12:49.779Z,21.10
2023-03-01T17:15:56.056Z,19.60
2023-03-01T17:19:02.478Z,24.40
2023-03-01T17:22:08.842Z,28.30
2023-03-01T17:28:20.174Z,26.90
2023-03-01T17:31:26.865Z,25.60
2023-03-01T17:34:34.416Z,24.80
2023-03-01T17:37:46.551Z,24.80
2023-03-01T17:40:52.900Z,24.60
2023-03-01T17:43:59.205Z,26.20
2023-03-01T17:50:12.531Z,30.00
2023-03-01T17:53:19.331Z,30.20
2023-03-01T17:56:25.569Z,31.30
2023-03-01T17:59:34.101Z,30.30
2023-03-01T18:02:40.368Z,28.90
2023-03-01T18:08:52.369Z,34.80
2023-03-01T18:11:58.844Z,37.50
2023-03-01T18:15:05.339Z,41.60
2023-03-01T18:18:11.534Z,41.20
2023-03-01T18:21:18.351Z,42.40
2023-03-01T18:24:24.844Z,52.80
2023-03-01T18:27:31.098Z,63.00
2023-03-01T18:30:38.624Z,65.10
2023-03-01T18:33:45.270Z,63.50
2023-03-01T18:37:10.521Z,50.00
2023-03-01T18:40:17.035Z,47.40
2023-03-01T18:43:24.079Z,47.50
2023-03-01T18:46:30.876Z,43.10
2023-03-01T18:49:37.337Z,40.10
2023-03-01T18:52:43.554Z,35.20
2023-03-01T18:55:49.853Z,32.20
2023-03-01T19:02:00.691Z,33.80
2023-03-01T19:08:11.868Z,31.50
2023-03-01T19:11:18.798Z,30.90
2023-03-01T19:14:25.010Z,30.30
2023-03-01T19:17:32.106Z,31.70
2023-03-01T19:20:39.528Z,33.30
2023-03-01T19:23:47.946Z,32.00
2023-03-01T19:26:55.297Z,33.10
2023-03-01T19:30:01.674Z,30.80
2023-03-01T19:36:13.936Z,31.10
2023-03-01T19:39:20.170Z,32.80
2023-03-01T19:42:27.876Z,32.90
2023-03-01T19:45:34.468Z,34.00
2023-03-01T19:48:40.962Z,33.90
2023-03-01T19:51:47.318Z,32.00
2023-03-01T19:58:02.117Z,33.40
2023-03-01T20:01:14.859Z,36.10
2023-03-01T20:04:21.487Z,36.50
2023-03-01T20:07:27.896Z,35.60
2023-03-01T20:13:39.534Z,35.50
2023-03-01T20:16:45.846Z,35.60
2023-03-01T20:22:56.737Z,36.70
2023-03-01T20:26:08.824Z,35.90
2023-03-01T20:29:15.454Z,35.50
2023-03-01T20:32:21.740Z,36.40
2023-03-01T20:38:32.930Z,46.80
2023-03-01T20:41:39.258Z,49.20
2023-03-01T20:47:51.131Z,48.40
2023-03-01T20:51:01.752Z,44.40
2023-03-01T20:54:08.125Z,45.20
2023-03-01T21:00:21.016Z,41.10
2023-03-01T21:03:27.483Z,39.10
2023-03-01T21:06:34.327Z,38.90
2023-03-01T21:09:42.049Z,41.50
2023-03-01T21:12:48.260Z,38.60
2023-03-01T21:16:00.010Z,36.60
2023-03-01T21:19:06.508Z,37.60
2023-03-01T21:22:13.532Z,39.40
2023-03-01T21:25:19.972Z,42.90
2023-03-01T21:28:27.477Z,44.70
2023-03-01T21:31:35.968Z,44.20
2023-03-01T21:34:43.236Z,43.90
2023-03-01T21:37:49.493Z,43.30
2023-03-01T21:44:03.008Z,44.90
2023-03-01T21:47:10.501Z,46.00
2023-03-01T21:50:16.809Z,49.50
2023-03-01T21:56:29.653Z,51.90
2023-03-01T21:59:35.990Z,54.60
2023-03-01T22:05:55.120Z,43.30
2023-03-01T22:09:04.761Z,42.00
2023-03-01T22:12:11.268Z,43.60
2023-03-01T22:15:17.565Z,43.40
2023-03-01T22:21:28.651Z,42.90
2023-03-01T22:24:34.876Z,43.00
2023-03-01T22:27:41.489Z,43.50
2023-03-01T22:30:47.757Z,42.80
2023-03-01T22:36:58.741Z,46.20
2023-03-01T22:40:05.887Z,46.10
2023-03-01T22:43:12.084Z,44.30
2023-03-01T22:46:19.985Z,44.30
2023-03-01T22:49:26.456Z,47.90
2023-03-01T22:52:32.709Z,52.10
2023-03-01T22:55:39.417Z,51.20
2023-03-01T22:58:46.217Z,47.60
2023-03-01T23:01:53.363Z,48.80
2023-03-01T23:05:00.063Z,50.20
2023-03-01T23:08:06.520Z,49.70
2023-03-01T23:11:16.111Z,49.60
2023-03-01T23:14:22.939Z,50.50
2023-03-01T23:17:29.217Z,50.90
2023-03-01T23:23:43.609Z,50.10
2023-03-01T23:26:53.513Z,47.60
2023-03-01T23:29:59.908Z,50.90
2023-03-01T23:36:18.906Z,50.70
2023-03-01T23:39:25.815Z,52.80
2023-03-01T23:42:32.182Z,51.70
2023-03-01T23:48:49.733Z,56.10
2023-03-01T23:51:55.960Z,55.00
2023-03-01T23:55:03.045Z,57.00
2023-03-01T23:58:09.420Z,58.00
